Mansfield, OH (44901)

3:09 PM EST on December 06, 2016 (GMT -0500)
Mansfield Lahm Regional | | Change Station

Elev 1296 ft 40.82 °N, 82.52 °W | Updated 17 minutes ago

Light Rain
Light Rain Mist
38 °F
Feels Like 33 °F
N
7
Wind Variable Wind from ESE

Today
High -- | Low -- °F
--% Chance of Precip.
Yesterday
High -- | Low -- °F
Precip. -- in
Pressure 29.67 in
Visibility 4.0 miles
Clouds Overcast 400 ft
Windchill 33 °F
Dew Point 38 °F
Humidity 100%
Rainfall 0.45 in
Snow Depth Not available.
7:40 AM 5:02 PM
Waxing Crescent, 44% visible
METAR KMFD 061952Z 11006KT 4SM -RA BR OVC004 03/03 A2964 RMK AO2 SLP047 P0009 T00330033
Pressure 29.67 in
Visibility 4.0 miles
Clouds Overcast 400 ft
Windchill 33 °F
Dew Point 38 °F
Humidity 100%
Rainfall 0.45 in
Snow Depth Not available.
7:40 AM 5:02 PM
Waxing Crescent, 44% visible
METAR KMFD 061952Z 11006KT 4SM -RA BR OVC004 03/03 A2964 RMK AO2 SLP047 P0009 T00330033

10-Day Weather Forecast

Almanac

Astronomy

Dec. 06, 2016 Rise Set
Actual Time
Civil Twilight
Nautical Twilight
Astronomical Twilight
Moon
Length of Visible Light
Length of Day
Tomorrow will be .
, % of the Moon is Illuminated

Today's Extremes

State Highs State Lows

Community

WunderPhotos

Upload Photos

1,956,022 photos uploaded!

WunderBlog® & News

Nearby

Air Quality

  Air Quality AQ Index Pollutant
Not available.

Snow Depth

Station Depth Elevation

Earthquake Activity

City Distance Mag. Time & Date
Minimum magnitude displayed is 2.5.

Coastal Water Temperatures

Place Temperature

Stations

Nearby Weather Stations

Station Location Temp. Windchill Dew Point Humidity Wind Precip. Elev Updated Type
                   

Watches & Warnings

There are currently no watches in effect.